sensor_id;sensor_type;location;lat;lon;timestamp;temperature;humidity
18575;DHT22;9417;16.484;102.872;2023-02-02T00:00:15;16.80;89.60
18575;DHT22;9417;16.484;102.872;2023-02-02T00:02:22;16.70;90.10
18575;DHT22;9417;16.484;102.872;2023-02-02T00:04:30;16.70;90.40
18575;DHT22;9417;16.484;102.872;2023-02-02T00:06:37;16.70;90.40
18575;DHT22;9417;16.484;102.872;2023-02-02T00:08:45;16.70;90.20
18575;DHT22;9417;16.484;102.872;2023-02-02T00:10:52;16.80;90.20
18575;DHT22;9417;16.484;102.872;2023-02-02T00:13:01;16.80;90.10
18575;DHT22;9417;16.484;102.872;2023-02-02T00:15:08;16.90;90.00
18575;DHT22;9417;16.484;102.872;2023-02-02T00:17:15;17.00;89.80
18575;DHT22;9417;16.484;102.872;2023-02-02T00:19:23;17.00;89.50
18575;DHT22;9417;16.484;102.872;2023-02-02T00:21:31;17.00;89.10
18575;DHT22;9417;16.484;102.872;2023-02-02T00:23:38;17.10;88.90
18575;DHT22;9417;16.484;102.872;2023-02-02T00:25:49;17.10;88.80
18575;DHT22;9417;16.484;102.872;2023-02-02T00:27:56;17.20;89.00
18575;DHT22;9417;16.484;102.872;2023-02-02T00:30:06;17.30;89.10
18575;DHT22;9417;16.484;102.872;2023-02-02T00:32:14;17.30;89.30
18575;DHT22;9417;16.484;102.872;2023-02-02T00:34:21;17.40;89.50
18575;DHT22;9417;16.484;102.872;2023-02-02T00:36:29;17.40;89.30
18575;DHT22;9417;16.484;102.872;2023-02-02T00:38:36;17.50;89.50
18575;DHT22;9417;16.484;102.872;2023-02-02T00:40:43;17.60;89.60
18575;DHT22;9417;16.484;102.872;2023-02-02T00:42:50;17.70;89.30
18575;DHT22;9417;16.484;102.872;2023-02-02T00:44:58;17.70;88.80
18575;DHT22;9417;16.484;102.872;2023-02-02T00:47:23;17.80;88.70
18575;DHT22;9417;16.484;102.872;2023-02-02T00:49:30;17.90;88.80
18575;DHT22;9417;16.484;102.872;2023-02-02T00:51:37;18.00;88.40
18575;DHT22;9417;16.484;102.872;2023-02-02T00:53:45;18.00;87.70
18575;DHT22;9417;16.484;102.872;2023-02-02T00:55:53;18.10;87.20
18575;DHT22;9417;16.484;102.872;2023-02-02T00:58:00;18.20;87.00
18575;DHT22;9417;16.484;102.872;2023-02-02T01:00:11;18.20;87.00
18575;DHT22;9417;16.484;102.872;2023-02-02T01:02:19;18.20;86.60
18575;DHT22;9417;16.484;102.872;2023-02-02T01:04:28;18.20;86.10
18575;DHT22;9417;16.484;102.872;2023-02-02T01:06:35;18.30;85.80
18575;DHT22;9417;16.484;102.872;2023-02-02T01:08:43;18.30;85.30
18575;DHT22;9417;16.484;102.872;2023-02-02T01:10:51;18.40;85.00
18575;DHT22;9417;16.484;102.872;2023-02-02T01:12:58;18.40;84.80
18575;DHT22;9417;16.484;102.872;2023-02-02T01:15:07;18.50;84.60
18575;DHT22;9417;16.484;102.872;2023-02-02T01:17:15;18.50;84.40
18575;DHT22;9417;16.484;102.872;2023-02-02T01:19:22;18.60;84.50
18575;DHT22;9417;16.484;102.872;2023-02-02T01:21:31;18.70;84.90
18575;DHT22;9417;16.484;102.872;2023-02-02T01:23:38;18.70;84.90
18575;DHT22;9417;16.484;102.872;2023-02-02T01:25:51;18.80;84.60
18575;DHT22;9417;16.484;102.872;2023-02-02T01:27:58;18.90;84.50
18575;DHT22;9417;16.484;102.872;2023-02-02T01:30:05;19.00;84.40
18575;DHT22;9417;16.484;102.872;2023-02-02T01:32:13;19.10;84.10
18575;DHT22;9417;16.484;102.872;2023-02-02T01:34:20;19.20;83.80
18575;DHT22;9417;16.484;102.872;2023-02-02T01:36:27;19.30;82.00
18575;DHT22;9417;16.484;102.872;2023-02-02T01:38:36;19.50;81.20
18575;DHT22;9417;16.484;102.872;2023-02-02T01:40:46;19.60;81.40
18575;DHT22;9417;16.484;102.872;2023-02-02T01:42:54;19.70;80.00
18575;DHT22;9417;16.484;102.872;2023-02-02T01:45:22;19.80;79.20
18575;DHT22;9417;16.484;102.872;2023-02-02T01:47:32;20.00;77.80
18575;DHT22;9417;16.484;102.872;2023-02-02T01:49:41;20.10;77.00
18575;DHT22;9417;16.484;102.872;2023-02-02T01:51:49;20.30;76.30
18575;DHT22;9417;16.484;102.872;2023-02-02T01:54:00;20.40;75.60
18575;DHT22;9417;16.484;102.872;2023-02-02T01:56:11;20.50;75.60
18575;DHT22;9417;16.484;102.872;2023-02-02T01:58:20;20.60;75.20
18575;DHT22;9417;16.484;102.872;2023-02-02T02:00:28;20.70;75.30
18575;DHT22;9417;16.484;102.872;2023-02-02T02:02:36;20.80;75.20
18575;DHT22;9417;16.484;102.872;2023-02-02T02:04:44;20.90;75.20
18575;DHT22;9417;16.484;102.872;2023-02-02T02:06:52;21.00;75.00
18575;DHT22;9417;16.484;102.872;2023-02-02T02:09:02;21.10;73.90
18575;DHT22;9417;16.484;102.872;2023-02-02T02:11:10;21.20;74.00
18575;DHT22;9417;16.484;102.872;2023-02-02T02:13:17;21.30;73.80
18575;DHT22;9417;16.484;102.872;2023-02-02T02:15:29;21.30;73.80
18575;DHT22;9417;16.484;102.872;2023-02-02T02:20:33;21.50;75.00
18575;DHT22;9417;16.484;102.872;2023-02-02T02:23:30;21.70;71.90
18575;DHT22;9417;16.484;102.872;2023-02-02T02:26:13;22.00;69.50
18575;DHT22;9417;16.484;102.872;2023-02-02T02:29:03;22.40;67.10
18575;DHT22;9417;16.484;102.872;2023-02-02T02:33:55;22.90;67.20
18575;DHT22;9417;16.484;102.872;2023-02-02T02:36:06;23.20;66.80
18575;DHT22;9417;16.484;102.872;2023-02-02T02:38:22;23.30;67.00
18575;DHT22;9417;16.484;102.872;2023-02-02T02:40:36;23.50;66.20
18575;DHT22;9417;16.484;102.872;2023-02-02T02:42:49;23.50;64.80
18575;DHT22;9417;16.484;102.872;2023-02-02T02:45:00;23.60;65.00
18575;DHT22;9417;16.484;102.872;2023-02-02T02:47:08;23.70;64.40
18575;DHT22;9417;16.484;102.872;2023-02-02T02:49:18;23.90;64.20
18575;DHT22;9417;16.484;102.872;2023-02-02T02:51:42;24.00;64.80
18575;DHT22;9417;16.484;102.872;2023-02-02T02:54:00;24.10;64.10
18575;DHT22;9417;16.484;102.872;2023-02-02T02:56:12;24.20;62.40
18575;DHT22;9417;16.484;102.872;2023-02-02T02:58:28;24.20;63.00
18575;DHT22;9417;16.484;102.872;2023-02-02T03:00:55;24.30;62.00
18575;DHT22;9417;16.484;102.872;2023-02-02T03:03:10;24.40;62.30
18575;DHT22;9417;16.484;102.872;2023-02-02T03:05:31;24.60;58.30
18575;DHT22;9417;16.484;102.872;2023-02-02T03:07:42;24.70;58.50
18575;DHT22;9417;16.484;102.872;2023-02-02T03:09:52;24.90;58.70
18575;DHT22;9417;16.484;102.872;2023-02-02T03:12:00;25.00;59.70
18575;DHT22;9417;16.484;102.872;2023-02-02T03:14:07;25.10;60.30
18575;DHT22;9417;16.484;102.872;2023-02-02T03:16:15;25.30;61.30
18575;DHT22;9417;16.484;102.872;2023-02-02T03:18:25;25.40;60.50
18575;DHT22;9417;16.484;102.872;2023-02-02T03:20:35;25.50;58.20
18575;DHT22;9417;16.484;102.872;2023-02-02T03:22:42;25.60;55.80
18575;DHT22;9417;16.484;102.872;2023-02-02T03:24:49;25.70;55.70
18575;DHT22;9417;16.484;102.872;2023-02-02T03:26:57;25.80;55.60
18575;DHT22;9417;16.484;102.872;2023-02-02T03:29:04;25.90;53.90
18575;DHT22;9417;16.484;102.872;2023-02-02T03:31:11;26.00;53.90
18575;DHT22;9417;16.484;102.872;2023-02-02T03:33:20;26.10;53.40
18575;DHT22;9417;16.484;102.872;2023-02-02T03:35:27;26.30;52.50
18575;DHT22;9417;16.484;102.872;2023-02-02T03:37:36;26.40;53.50
18575;DHT22;9417;16.484;102.872;2023-02-02T03:39:43;26.40;52.70
18575;DHT22;9417;16.484;102.872;2023-02-02T03:41:50;26.50;52.00
18575;DHT22;9417;16.484;102.872;2023-02-02T03:43:58;26.50;53.80
18575;DHT22;9417;16.484;102.872;2023-02-02T03:46:05;26.60;54.50
18575;DHT22;9417;16.484;102.872;2023-02-02T03:48:12;26.70;54.00
18575;DHT22;9417;16.484;102.872;2023-02-02T03:50:20;26.70;53.40
18575;DHT22;9417;16.484;102.872;2023-02-02T03:52:28;26.70;53.30
18575;DHT22;9417;16.484;102.872;2023-02-02T03:54:37;26.80;54.50
18575;DHT22;9417;16.484;102.872;2023-02-02T03:56:44;27.00;55.80
18575;DHT22;9417;16.484;102.872;2023-02-02T03:58:51;27.10;54.80
18575;DHT22;9417;16.484;102.872;2023-02-02T04:01:02;27.30;54.80
18575;DHT22;9417;16.484;102.872;2023-02-02T04:03:09;27.40;54.20
18575;DHT22;9417;16.484;102.872;2023-02-02T04:05:17;27.50;51.70
18575;DHT22;9417;16.484;102.872;2023-02-02T04:07:25;27.70;51.30
18575;DHT22;9417;16.484;102.872;2023-02-02T04:09:32;27.70;51.50
18575;DHT22;9417;16.484;102.872;2023-02-02T04:11:41;27.90;52.80
18575;DHT22;9417;16.484;102.872;2023-02-02T04:13:48;28.00;53.00
18575;DHT22;9417;16.484;102.872;2023-02-02T04:15:59;28.10;51.20
18575;DHT22;9417;16.484;102.872;2023-02-02T04:18:06;28.20;48.90
18575;DHT22;9417;16.484;102.872;2023-02-02T04:20:14;28.30;48.70
18575;DHT22;9417;16.484;102.872;2023-02-02T04:22:21;28.30;48.70
18575;DHT22;9417;16.484;102.872;2023-02-02T04:24:28;28.50;48.10
18575;DHT22;9417;16.484;102.872;2023-02-02T04:26:35;28.50;46.90
18575;DHT22;9417;16.484;102.872;2023-02-02T04:28:44;28.50;45.80
18575;DHT22;9417;16.484;102.872;2023-02-02T04:30:51;28.50;46.40
18575;DHT22;9417;16.484;102.872;2023-02-02T04:32:59;28.60;46.70
18575;DHT22;9417;16.484;102.872;2023-02-02T04:35:06;28.70;47.70
18575;DHT22;9417;16.484;102.872;2023-02-02T04:37:14;28.90;46.20
18575;DHT22;9417;16.484;102.872;2023-02-02T04:39:21;28.80;45.20
18575;DHT22;9417;16.484;102.872;2023-02-02T04:41:29;28.90;46.10
18575;DHT22;9417;16.484;102.872;2023-02-02T04:43:36;28.90;47.00
18575;DHT22;9417;16.484;102.872;2023-02-02T04:45:46;29.00;47.50
18575;DHT22;9417;16.484;102.872;2023-02-02T04:47:53;29.10;46.90
18575;DHT22;9417;16.484;102.872;2023-02-02T04:50:00;29.20;45.30
18575;DHT22;9417;16.484;102.872;2023-02-02T04:52:08;29.20;46.20
18575;DHT22;9417;16.484;102.872;2023-02-02T04:54:16;29.20;47.90
18575;DHT22;9417;16.484;102.872;2023-02-02T04:56:23;29.30;47.40
18575;DHT22;9417;16.484;102.872;2023-02-02T04:58:32;29.40;44.80
18575;DHT22;9417;16.484;102.872;2023-02-02T05:00:39;29.50;45.60
18575;DHT22;9417;16.484;102.872;2023-02-02T05:02:49;29.60;42.70
18575;DHT22;9417;16.484;102.872;2023-02-02T05:04:56;29.60;43.80
18575;DHT22;9417;16.484;102.872;2023-02-02T05:07:03;29.60;45.80
18575;DHT22;9417;16.484;102.872;2023-02-02T05:09:11;29.70;45.30
18575;DHT22;9417;16.484;102.872;2023-02-02T05:11:19;29.80;45.80
18575;DHT22;9417;16.484;102.872;2023-02-02T05:13:27;30.00;45.80
18575;DHT22;9417;16.484;102.872;2023-02-02T05:15:35;30.10;43.90
18575;DHT22;9417;16.484;102.872;2023-02-02T05:17:42;30.00;43.50
18575;DHT22;9417;16.484;102.872;2023-02-02T05:19:52;30.10;44.20
18575;DHT22;9417;16.484;102.872;2023-02-02T05:21:59;30.20;44.90
18575;DHT22;9417;16.484;102.872;2023-02-02T05:24:06;30.30;44.40
18575;DHT22;9417;16.484;102.872;2023-02-02T05:26:15;30.40;44.00
18575;DHT22;9417;16.484;102.872;2023-02-02T05:28:23;30.50;43.80
18575;DHT22;9417;16.484;102.872;2023-02-02T05:30:30;30.50;43.10
18575;DHT22;9417;16.484;102.872;2023-02-02T05:32:38;30.50;44.00
18575;DHT22;9417;16.484;102.872;2023-02-02T05:34:45;30.50;44.10
18575;DHT22;9417;16.484;102.872;2023-02-02T05:36:54;30.70;44.40
18575;DHT22;9417;16.484;102.872;2023-02-02T05:39:01;30.80;44.90
18575;DHT22;9417;16.484;102.872;2023-02-02T05:41:09;30.80;43.20
18575;DHT22;9417;16.484;102.872;2023-02-02T05:43:16;30.80;43.70
18575;DHT22;9417;16.484;102.872;2023-02-02T05:45:24;30.70;43.50
18575;DHT22;9417;16.484;102.872;2023-02-02T05:47:31;30.80;43.70
18575;DHT22;9417;16.484;102.872;2023-02-02T05:49:39;30.80;44.00
18575;DHT22;9417;16.484;102.872;2023-02-02T05:51:47;30.90;42.90
18575;DHT22;9417;16.484;102.872;2023-02-02T05:53:58;30.90;44.00
18575;DHT22;9417;16.484;102.872;2023-02-02T05:56:06;30.90;43.20
18575;DHT22;9417;16.484;102.872;2023-02-02T05:58:13;30.80;41.10
18575;DHT22;9417;16.484;102.872;2023-02-02T06:00:21;30.60;41.30
18575;DHT22;9417;16.484;102.872;2023-02-02T06:02:30;30.70;43.10
18575;DHT22;9417;16.484;102.872;2023-02-02T06:04:38;30.80;44.70
18575;DHT22;9417;16.484;102.872;2023-02-02T06:06:45;30.80;43.50
18575;DHT22;9417;16.484;102.872;2023-02-02T06:08:52;30.90;44.00
18575;DHT22;9417;16.484;102.872;2023-02-02T06:11:08;31.00;42.80
18575;DHT22;9417;16.484;102.872;2023-02-02T06:13:15;31.10;43.10
18575;DHT22;9417;16.484;102.872;2023-02-02T06:15:23;31.10;42.60
18575;DHT22;9417;16.484;102.872;2023-02-02T06:17:31;31.00;43.10
18575;DHT22;9417;16.484;102.872;2023-02-02T06:19:38;31.10;42.60
18575;DHT22;9417;16.484;102.872;2023-02-02T06:21:45;31.20;43.30
18575;DHT22;9417;16.484;102.872;2023-02-02T06:23:52;31.30;43.60
18575;DHT22;9417;16.484;102.872;2023-02-02T06:26:01;31.40;43.30
18575;DHT22;9417;16.484;102.872;2023-02-02T06:28:08;31.60;43.50
18575;DHT22;9417;16.484;102.872;2023-02-02T06:30:16;31.70;43.20
18575;DHT22;9417;16.484;102.872;2023-02-02T06:32:22;31.70;42.10
18575;DHT22;9417;16.484;102.872;2023-02-02T06:34:30;31.70;41.40
18575;DHT22;9417;16.484;102.872;2023-02-02T06:36:37;31.80;41.70
18575;DHT22;9417;16.484;102.872;2023-02-02T06:38:48;31.80;42.40
18575;DHT22;9417;16.484;102.872;2023-02-02T06:41:00;31.70;41.70
18575;DHT22;9417;16.484;102.872;2023-02-02T06:43:08;31.60;43.00
18575;DHT22;9417;16.484;102.872;2023-02-02T06:45:19;31.70;43.10
18575;DHT22;9417;16.484;102.872;2023-02-02T06:47:26;31.80;43.80
18575;DHT22;9417;16.484;102.872;2023-02-02T06:49:33;31.80;43.30
18575;DHT22;9417;16.484;102.872;2023-02-02T06:51:40;31.90;42.60
18575;DHT22;9417;16.484;102.872;2023-02-02T06:53:48;31.90;43.10
18575;DHT22;9417;16.484;102.872;2023-02-02T06:55:55;31.70;41.00
18575;DHT22;9417;16.484;102.872;2023-02-02T06:58:04;31.70;41.20
18575;DHT22;9417;16.484;102.872;2023-02-02T07:00:12;31.60;40.50
18575;DHT22;9417;16.484;102.872;2023-02-02T07:02:22;31.70;41.80
18575;DHT22;9417;16.484;102.872;2023-02-02T07:04:29;31.70;41.60
18575;DHT22;9417;16.484;102.872;2023-02-02T07:06:36;31.80;41.90
18575;DHT22;9417;16.484;102.872;2023-02-02T07:08:44;31.80;42.20
18575;DHT22;9417;16.484;102.872;2023-02-02T07:11:05;31.90;40.90
18575;DHT22;9417;16.484;102.872;2023-02-02T07:13:20;32.00;40.50
18575;DHT22;9417;16.484;102.872;2023-02-02T07:15:27;32.00;40.80
18575;DHT22;9417;16.484;102.872;2023-02-02T07:17:34;32.00;40.80
18575;DHT22;9417;16.484;102.872;2023-02-02T07:19:41;32.10;41.30
18575;DHT22;9417;16.484;102.872;2023-02-02T07:21:48;32.10;41.50
18575;DHT22;9417;16.484;102.872;2023-02-02T07:23:56;32.10;41.80
18575;DHT22;9417;16.484;102.872;2023-02-02T07:26:04;32.00;41.20
18575;DHT22;9417;16.484;102.872;2023-02-02T07:28:11;31.90;42.30
18575;DHT22;9417;16.484;102.872;2023-02-02T07:30:20;31.90;42.40
18575;DHT22;9417;16.484;102.872;2023-02-02T07:32:29;31.90;42.00
18575;DHT22;9417;16.484;102.872;2023-02-02T07:34:37;32.00;42.40
18575;DHT22;9417;16.484;102.872;2023-02-02T07:36:46;32.00;41.60
18575;DHT22;9417;16.484;102.872;2023-02-02T07:38:53;31.90;42.40
18575;DHT22;9417;16.484;102.872;2023-02-02T07:41:01;32.00;41.80
18575;DHT22;9417;16.484;102.872;2023-02-02T07:43:08;32.00;40.80
18575;DHT22;9417;16.484;102.872;2023-02-02T07:45:16;31.90;40.50
18575;DHT22;9417;16.484;102.872;2023-02-02T07:47:31;31.80;40.80
18575;DHT22;9417;16.484;102.872;2023-02-02T07:49:38;31.90;42.10
18575;DHT22;9417;16.484;102.872;2023-02-02T07:51:45;31.90;40.70
18575;DHT22;9417;16.484;102.872;2023-02-02T07:53:53;31.80;41.50
18575;DHT22;9417;16.484;102.872;2023-02-02T07:56:09;31.70;40.70
18575;DHT22;9417;16.484;102.872;2023-02-02T07:58:17;31.70;42.60
18575;DHT22;9417;16.484;102.872;2023-02-02T08:00:25;31.70;42.70
18575;DHT22;9417;16.484;102.872;2023-02-02T08:02:34;31.80;42.10
18575;DHT22;9417;16.484;102.872;2023-02-02T08:04:41;31.70;42.60
18575;DHT22;9417;16.484;102.872;2023-02-02T08:06:47;31.70;43.10
18575;DHT22;9417;16.484;102.872;2023-02-02T08:08:55;31.80;41.90
18575;DHT22;9417;16.484;102.872;2023-02-02T08:11:02;31.90;41.50
18575;DHT22;9417;16.484;102.872;2023-02-02T08:13:09;31.90;42.50
18575;DHT22;9417;16.484;102.872;2023-02-02T08:15:17;31.80;42.90
18575;DHT22;9417;16.484;102.872;2023-02-02T08:17:24;31.90;43.70
18575;DHT22;9417;16.484;102.872;2023-02-02T08:19:33;31.80;43.40
18575;DHT22;9417;16.484;102.872;2023-02-02T08:21:40;31.80;42.50
18575;DHT22;9417;16.484;102.872;2023-02-02T08:23:47;31.80;42.50
18575;DHT22;9417;16.484;102.872;2023-02-02T08:26:03;31.80;43.40
18575;DHT22;9417;16.484;102.872;2023-02-02T08:28:10;31.80;43.90
18575;DHT22;9417;16.484;102.872;2023-02-02T08:30:18;31.80;43.30
18575;DHT22;9417;16.484;102.872;2023-02-02T08:32:25;31.80;43.50
18575;DHT22;9417;16.484;102.872;2023-02-02T08:34:34;31.80;43.70
18575;DHT22;9417;16.484;102.872;2023-02-02T08:36:41;31.80;44.30
18575;DHT22;9417;16.484;102.872;2023-02-02T08:38:49;31.70;43.90
18575;DHT22;9417;16.484;102.872;2023-02-02T08:41:02;31.70;44.10
18575;DHT22;9417;16.484;102.872;2023-02-02T08:43:10;31.60;44.00
18575;DHT22;9417;16.484;102.872;2023-02-02T08:45:18;31.60;43.90
18575;DHT22;9417;16.484;102.872;2023-02-02T08:47:46;31.60;44.60
18575;DHT22;9417;16.484;102.872;2023-02-02T08:50:15;31.50;45.10
18575;DHT22;9417;16.484;102.872;2023-02-02T08:52:22;31.50;45.80
18575;DHT22;9417;16.484;102.872;2023-02-02T08:54:29;31.50;43.70
18575;DHT22;9417;16.484;102.872;2023-02-02T08:56:36;31.50;44.00
18575;DHT22;9417;16.484;102.872;2023-02-02T08:58:45;31.50;43.10
18575;DHT22;9417;16.484;102.872;2023-02-02T09:00:52;31.50;43.50
18575;DHT22;9417;16.484;102.872;2023-02-02T09:02:59;31.50;43.80
18575;DHT22;9417;16.484;102.872;2023-02-02T09:05:07;31.50;44.20
18575;DHT22;9417;16.484;102.872;2023-02-02T09:07:16;31.50;44.90
18575;DHT22;9417;16.484;102.872;2023-02-02T09:09:24;31.50;45.00
18575;DHT22;9417;16.484;102.872;2023-02-02T09:11:31;31.40;45.10
18575;DHT22;9417;16.484;102.872;2023-02-02T09:13:39;31.30;45.20
18575;DHT22;9417;16.484;102.872;2023-02-02T09:15:49;31.20;44.50
18575;DHT22;9417;16.484;102.872;2023-02-02T09:17:58;31.20;44.10
18575;DHT22;9417;16.484;102.872;2023-02-02T09:20:07;31.20;44.00
18575;DHT22;9417;16.484;102.872;2023-02-02T09:22:16;31.20;43.70
18575;DHT22;9417;16.484;102.872;2023-02-02T09:24:24;31.20;44.00
18575;DHT22;9417;16.484;102.872;2023-02-02T09:26:31;31.10;44.90
18575;DHT22;9417;16.484;102.872;2023-02-02T09:28:38;31.10;45.10
18575;DHT22;9417;16.484;102.872;2023-02-02T09:30:46;31.00;45.00
18575;DHT22;9417;16.484;102.872;2023-02-02T09:32:54;31.00;44.90
18575;DHT22;9417;16.484;102.872;2023-02-02T09:35:01;30.90;45.00
18575;DHT22;9417;16.484;102.872;2023-02-02T09:37:08;30.90;45.10
18575;DHT22;9417;16.484;102.872;2023-02-02T09:39:17;30.90;45.30
18575;DHT22;9417;16.484;102.872;2023-02-02T09:44:28;30.90;45.60
18575;DHT22;9417;16.484;102.872;2023-02-02T09:46:49;30.90;46.10
18575;DHT22;9417;16.484;102.872;2023-02-02T09:49:04;30.80;46.10
18575;DHT22;9417;16.484;102.872;2023-02-02T09:51:16;30.80;46.20
18575;DHT22;9417;16.484;102.872;2023-02-02T09:53:26;30.70;46.50
18575;DHT22;9417;16.484;102.872;2023-02-02T09:55:43;30.70;46.80
18575;DHT22;9417;16.484;102.872;2023-02-02T09:57:53;30.70;47.10
18575;DHT22;9417;16.484;102.872;2023-02-02T10:00:02;30.70;47.60
18575;DHT22;9417;16.484;102.872;2023-02-02T10:02:21;30.60;47.20
18575;DHT22;9417;16.484;102.872;2023-02-02T10:04:33;30.60;47.00
18575;DHT22;9417;16.484;102.872;2023-02-02T10:06:42;30.60;46.90
18575;DHT22;9417;16.484;102.872;2023-02-02T10:08:53;30.50;47.20
18575;DHT22;9417;16.484;102.872;2023-02-02T10:11:09;30.50;47.50
18575;DHT22;9417;16.484;102.872;2023-02-02T10:13:24;30.50;47.70
18575;DHT22;9417;16.484;102.872;2023-02-02T10:15:33;30.40;47.30
18575;DHT22;9417;16.484;102.872;2023-02-02T10:17:46;30.40;47.30
18575;DHT22;9417;16.484;102.872;2023-02-02T10:19:59;30.30;47.60
18575;DHT22;9417;16.484;102.872;2023-02-02T10:22:13;30.20;47.40
18575;DHT22;9417;16.484;102.872;2023-02-02T10:24:25;30.20;47.60
18575;DHT22;9417;16.484;102.872;2023-02-02T10:26:41;30.10;47.90
18575;DHT22;9417;16.484;102.872;2023-02-02T10:29:05;30.00;48.20
18575;DHT22;9417;16.484;102.872;2023-02-02T10:31:21;29.90;48.80
18575;DHT22;9417;16.484;102.872;2023-02-02T10:33:36;29.90;48.90
18575;DHT22;9417;16.484;102.872;2023-02-02T10:35:48;29.70;49.10
18575;DHT22;9417;16.484;102.872;2023-02-02T10:38:04;29.70;49.30
18575;DHT22;9417;16.484;102.872;2023-02-02T10:40:20;29.50;49.50
18575;DHT22;9417;16.484;102.872;2023-02-02T10:42:39;29.50;49.50
18575;DHT22;9417;16.484;102.872;2023-02-02T10:45:13;29.40;49.50
18575;DHT22;9417;16.484;102.872;2023-02-02T10:47:24;29.20;49.70
18575;DHT22;9417;16.484;102.872;2023-02-02T10:49:34;29.20;49.90
18575;DHT22;9417;16.484;102.872;2023-02-02T10:51:48;29.10;50.20
18575;DHT22;9417;16.484;102.872;2023-02-02T10:53:57;29.00;50.80
18575;DHT22;9417;16.484;102.872;2023-02-02T10:56:10;28.90;51.20
18575;DHT22;9417;16.484;102.872;2023-02-02T10:58:25;28.80;51.90
18575;DHT22;9417;16.484;102.872;2023-02-02T11:00:37;28.70;53.00
18575;DHT22;9417;16.484;102.872;2023-02-02T11:02:47;28.60;53.20
18575;DHT22;9417;16.484;102.872;2023-02-02T11:04:54;28.40;53.70
18575;DHT22;9417;16.484;102.872;2023-02-02T11:07:17;28.30;53.90
18575;DHT22;9417;16.484;102.872;2023-02-02T11:09:29;28.20;55.30
18575;DHT22;9417;16.484;102.872;2023-02-02T11:11:39;28.10;55.60
18575;DHT22;9417;16.484;102.872;2023-02-02T11:13:53;28.00;55.50
18575;DHT22;9417;16.484;102.872;2023-02-02T11:16:23;27.90;55.40
18575;DHT22;9417;16.484;102.872;2023-02-02T11:18:45;27.70;55.80
18575;DHT22;9417;16.484;102.872;2023-02-02T11:20:52;27.60;56.10
18575;DHT22;9417;16.484;102.872;2023-02-02T11:23:01;27.50;56.60
18575;DHT22;9417;16.484;102.872;2023-02-02T11:25:26;27.40;57.30
18575;DHT22;9417;16.484;102.872;2023-02-02T11:27:39;27.30;58.10
18575;DHT22;9417;16.484;102.872;2023-02-02T11:29:50;27.20;58.80
18575;DHT22;9417;16.484;102.872;2023-02-02T11:31:57;27.10;59.10
18575;DHT22;9417;16.484;102.872;2023-02-02T11:34:16;27.00;59.20
18575;DHT22;9417;16.484;102.872;2023-02-02T11:36:23;26.90;59.90
18575;DHT22;9417;16.484;102.872;2023-02-02T11:38:31;26.80;61.00
18575;DHT22;9417;16.484;102.872;2023-02-02T11:40:41;26.70;61.50
18575;DHT22;9417;16.484;102.872;2023-02-02T11:42:48;26.60;61.60
18575;DHT22;9417;16.484;102.872;2023-02-02T11:44:59;26.60;61.50
18575;DHT22;9417;16.484;102.872;2023-02-02T11:47:14;26.40;61.60
18575;DHT22;9417;16.484;102.872;2023-02-02T11:49:24;26.30;61.90
18575;DHT22;9417;16.484;102.872;2023-02-02T11:51:32;26.20;62.10
18575;DHT22;9417;16.484;102.872;2023-02-02T11:53:44;26.20;62.40
18575;DHT22;9417;16.484;102.872;2023-02-02T11:55:53;26.10;63.20
18575;DHT22;9417;16.484;102.872;2023-02-02T11:58:17;26.00;63.70
18575;DHT22;9417;16.484;102.872;2023-02-02T12:00:30;26.00;64.00
18575;DHT22;9417;16.484;102.872;2023-02-02T12:02:45;25.90;64.30
18575;DHT22;9417;16.484;102.872;2023-02-02T12:04:56;25.80;63.90
18575;DHT22;9417;16.484;102.872;2023-02-02T12:07:21;25.80;64.00
18575;DHT22;9417;16.484;102.872;2023-02-02T12:09:29;25.70;63.70
18575;DHT22;9417;16.484;102.872;2023-02-02T12:11:47;25.70;64.30
18575;DHT22;9417;16.484;102.872;2023-02-02T12:14:09;25.60;64.90
18575;DHT22;9417;16.484;102.872;2023-02-02T12:16:42;25.60;65.10
18575;DHT22;9417;16.484;102.872;2023-02-02T12:19:08;25.60;64.70
18575;DHT22;9417;16.484;102.872;2023-02-02T12:21:31;25.50;64.40
18575;DHT22;9417;16.484;102.872;2023-02-02T12:23:53;25.40;64.90
18575;DHT22;9417;16.484;102.872;2023-02-02T12:26:20;25.40;65.10
18575;DHT22;9417;16.484;102.872;2023-02-02T12:28:48;25.30;65.30
18575;DHT22;9417;16.484;102.872;2023-02-02T12:31:03;25.30;65.70
18575;DHT22;9417;16.484;102.872;2023-02-02T12:33:25;25.20;65.40
18575;DHT22;9417;16.484;102.872;2023-02-02T12:36:07;25.20;66.20
18575;DHT22;9417;16.484;102.872;2023-02-02T12:38:19;25.20;66.20
18575;DHT22;9417;16.484;102.872;2023-02-02T12:40:45;25.10;66.60
18575;DHT22;9417;16.484;102.872;2023-02-02T12:43:03;25.10;67.20
18575;DHT22;9417;16.484;102.872;2023-02-02T12:45:36;25.00;67.70
18575;DHT22;9417;16.484;102.872;2023-02-02T12:47:51;25.00;68.30
18575;DHT22;9417;16.484;102.872;2023-02-02T12:50:17;24.90;68.50
18575;DHT22;9417;16.484;102.872;2023-02-02T12:52:41;24.90;68.70
18575;DHT22;9417;16.484;102.872;2023-02-02T12:55:03;24.80;69.00
18575;DHT22;9417;16.484;102.872;2023-02-02T12:57:17;24.80;68.90
18575;DHT22;9417;16.484;102.872;2023-02-02T12:59:42;24.70;69.20
18575;DHT22;9417;16.484;102.872;2023-02-02T13:02:02;24.70;69.50
18575;DHT22;9417;16.484;102.872;2023-02-02T13:04:36;24.60;69.70
18575;DHT22;9417;16.484;102.872;2023-02-02T13:07:08;24.60;69.50
18575;DHT22;9417;16.484;102.872;2023-02-02T13:09:22;24.50;69.70
18575;DHT22;9417;16.484;102.872;2023-02-02T13:11:39;24.50;70.00
18575;DHT22;9417;16.484;102.872;2023-02-02T13:13:49;24.40;70.10
18575;DHT22;9417;16.484;102.872;2023-02-02T13:16:01;24.40;69.90
18575;DHT22;9417;16.484;102.872;2023-02-02T13:18:13;24.40;70.10
18575;DHT22;9417;16.484;102.872;2023-02-02T13:20:35;24.40;70.60
18575;DHT22;9417;16.484;102.872;2023-02-02T13:22:48;24.40;71.10
18575;DHT22;9417;16.484;102.872;2023-02-02T13:25:01;24.30;71.50
18575;DHT22;9417;16.484;102.872;2023-02-02T13:27:12;24.30;71.20
18575;DHT22;9417;16.484;102.872;2023-02-02T13:29:30;24.20;71.50
18575;DHT22;9417;16.484;102.872;2023-02-02T13:31:54;24.10;72.60
18575;DHT22;9417;16.484;102.872;2023-02-02T13:34:09;24.10;72.60
18575;DHT22;9417;16.484;102.872;2023-02-02T13:36:23;24.10;72.60
18575;DHT22;9417;16.484;102.872;2023-02-02T13:38:35;24.10;73.00
18575;DHT22;9417;16.484;102.872;2023-02-02T13:40:46;24.00;73.60
18575;DHT22;9417;16.484;102.872;2023-02-02T13:42:58;24.10;73.90